createdAt,value
2022-08-01T00:01:51.257Z,100188.53
2022-08-01T00:04:19.022Z,100193.59
2022-08-01T00:06:50.332Z,100194.84
2022-08-01T00:09:23.732Z,100192.59
2022-08-01T00:11:59.946Z,100184.91
2022-08-01T00:14:48.309Z,100183.72
2022-08-01T00:17:18.280Z,100182.81
2022-08-01T00:19:46.051Z,100186.13
2022-08-01T00:22:14.058Z,100186.97
2022-08-01T00:24:41.881Z,100178.19
2022-08-01T00:27:09.857Z,100166.03
2022-08-01T00:30:12.591Z,100167.19
2022-08-01T00:32:28.061Z,100165.91
2022-08-01T00:34:56.693Z,100165.75
2022-08-01T00:37:26.192Z,100169.34
2022-08-01T00:39:54.317Z,100157.09
2022-08-01T00:42:22.270Z,100157.69
2022-08-01T00:44:50.211Z,100162.00
2022-08-01T00:47:17.936Z,100165.38
2022-08-01T00:49:45.931Z,100163.59
2022-08-01T00:52:13.900Z,100155.88
2022-08-01T00:54:42.585Z,100160.44
2022-08-01T00:57:11.059Z,100157.41
2022-08-01T00:59:41.304Z,100165.16
2022-08-01T01:02:36.153Z,100169.09
2022-08-01T01:05:07.567Z,100162.06
2022-08-01T01:07:53.540Z,100168.53
2022-08-01T01:10:36.563Z,100163.94
2022-08-01T01:13:33.054Z,100163.47
2022-08-01T01:16:19.931Z,100165.25
2022-08-01T01:19:01.720Z,100169.41
2022-08-01T01:21:35.520Z,100170.34
2022-08-01T01:24:32.734Z,100166.63
2022-08-01T01:27:32.889Z,100170.66
2022-08-01T01:30:02.298Z,100167.06
2022-08-01T01:32:39.119Z,100163.63
2022-08-01T01:35:16.738Z,100162.81
2022-08-01T01:37:49.152Z,100168.38
2022-08-01T01:40:22.549Z,100167.47
2022-08-01T01:42:53.152Z,100159.84
2022-08-01T01:45:26.769Z,100164.22
2022-08-01T01:47:57.500Z,100157.88
2022-08-01T01:50:28.618Z,100167.47
2022-08-01T01:52:56.675Z,100164.06
2022-08-01T01:55:26.937Z,100168.59
2022-08-01T01:57:56.888Z,100169.41
2022-08-01T02:00:26.161Z,100177.16
2022-08-01T02:02:57.775Z,100171.69
2022-08-01T02:05:29.213Z,100161.25
2022-08-01T02:07:59.374Z,100160.38
2022-08-01T02:10:28.928Z,100154.19
2022-08-01T02:13:00.902Z,100152.78
2022-08-01T02:15:31.074Z,100156.97
2022-08-01T02:18:00.739Z,100152.56
2022-08-01T02:20:31.942Z,100156.00
2022-08-01T02:23:13.123Z,100151.16
2022-08-01T02:26:09.702Z,100154.03
2022-08-01T02:28:42.853Z,100156.22
2022-08-01T02:31:17.944Z,100146.13
2022-08-01T02:33:56.643Z,100150.28
2022-08-01T02:36:31.642Z,100162.88
2022-08-01T02:39:07.606Z,100168.03
2022-08-01T02:41:42.288Z,100167.09
2022-08-01T02:44:22.647Z,100163.72
2022-08-01T02:47:13.802Z,100165.63
2022-08-01T02:49:46.355Z,100168.75
2022-08-01T02:52:17.432Z,100170.22
2022-08-01T02:55:13.080Z,100163.19
2022-08-01T02:57:52.576Z,100168.78
2022-08-01T03:00:26.098Z,100169.22
2022-08-01T03:02:56.324Z,100176.28
2022-08-01T03:05:26.357Z,100180.19
2022-08-01T03:07:56.666Z,100173.66
2022-08-01T03:10:32.484Z,100180.91
2022-08-01T03:13:26.946Z,100176.03
2022-08-01T03:15:57.025Z,100179.19
2022-08-01T03:18:26.982Z,100186.22
2022-08-01T03:20:57.482Z,100179.25
2022-08-01T03:23:37.832Z,100178.81
2022-08-01T03:26:33.301Z,100174.72
2022-08-01T03:29:22.184Z,100179.06
2022-08-01T03:31:50.635Z,100178.63
2022-08-01T03:34:18.863Z,100183.53
2022-08-01T03:36:51.028Z,100177.63
2022-08-01T03:39:26.349Z,100183.78
2022-08-01T03:42:22.064Z,100187.94
2022-08-01T03:44:55.845Z,100190.00
2022-08-01T03:47:43.478Z,100190.00
2022-08-01T03:50:15.335Z,100192.88
2022-08-01T03:52:47.791Z,100197.19
2022-08-01T03:55:42.429Z,100191.88
2022-08-01T03:58:11.778Z,100194.72
2022-08-01T04:00:40.878Z,100196.31
2022-08-01T04:03:10.186Z,100202.63
2022-08-01T04:05:38.206Z,100202.03
2022-08-01T04:08:06.159Z,100204.28
2022-08-01T04:10:34.166Z,100209.34
2022-08-01T04:13:02.035Z,100215.09
2022-08-01T04:15:33.001Z,100214.47
2022-08-01T04:18:02.144Z,100218.91
2022-08-01T04:20:30.118Z,100218.97
2022-08-01T04:22:57.849Z,100223.84
2022-08-01T04:25:36.409Z,100219.47
2022-08-01T04:28:09.035Z,100225.44
2022-08-01T04:31:03.985Z,100218.78
2022-08-01T04:33:43.677Z,100225.69
2022-08-01T04:36:16.048Z,100229.41
2022-08-01T04:38:49.761Z,100228.69
2022-08-01T04:41:19.937Z,100230.03
2022-08-01T04:43:48.240Z,100231.44
2022-08-01T04:46:18.658Z,100234.84
2022-08-01T04:49:13.094Z,100237.75
2022-08-01T04:52:01.372Z,100221.94
2022-08-01T04:54:31.113Z,100217.03
2022-08-01T04:57:01.251Z,100227.53
2022-08-01T04:59:42.313Z,100235.16
2022-08-01T05:02:17.287Z,100235.50
2022-08-01T05:05:13.600Z,100234.56
2022-08-01T05:07:45.422Z,100238.16
2022-08-01T05:10:13.734Z,100237.81
2022-08-01T05:12:41.572Z,100235.94
2022-08-01T05:15:15.253Z,100241.56
2022-08-01T05:17:43.964Z,100243.34
2022-08-01T05:20:13.519Z,100249.22
2022-08-01T05:22:41.487Z,100251.13
2022-08-01T05:25:09.511Z,100249.16
2022-08-01T05:27:40.721Z,100251.25
2022-08-01T05:30:10.435Z,100252.25
2022-08-01T05:32:38.360Z,100252.44
2022-08-01T05:35:06.820Z,100258.13
2022-08-01T05:37:42.733Z,100253.25
2022-08-01T05:40:11.480Z,100261.84
2022-08-01T05:43:07.226Z,100266.72
2022-08-01T05:45:39.941Z,100268.41
2022-08-01T05:48:09.512Z,100260.63
2022-08-01T05:50:38.291Z,100261.69
2022-08-01T05:53:06.366Z,100276.25
2022-08-01T05:55:34.361Z,100268.13
2022-08-01T05:58:03.280Z,100262.03
2022-08-01T06:00:31.209Z,100269.53
2022-08-01T06:02:59.129Z,100272.38
2022-08-01T06:05:27.293Z,100275.56
2022-08-01T06:07:55.208Z,100273.59
2022-08-01T06:10:23.195Z,100272.13
2022-08-01T06:12:51.201Z,100267.75
2022-08-01T06:15:18.967Z,100272.22
2022-08-01T06:17:48.277Z,100275.72
2022-08-01T06:20:16.471Z,100276.19
2022-08-01T06:22:44.338Z,100272.06
2022-08-01T06:25:21.372Z,100273.84
2022-08-01T06:27:50.866Z,100276.13
2022-08-01T06:30:22.471Z,100270.22
2022-08-01T06:32:50.444Z,100278.97
2022-08-01T06:35:18.362Z,100271.81
2022-08-01T06:37:48.284Z,100283.44
2022-08-01T06:40:17.452Z,100274.66
2022-08-01T06:42:47.935Z,100283.72
2022-08-01T06:45:16.799Z,100286.44
2022-08-01T06:47:50.787Z,100274.31
2022-08-01T06:50:19.287Z,100276.97
2022-08-01T06:52:47.100Z,100281.09
2022-08-01T06:55:15.379Z,100272.69
2022-08-01T06:57:53.686Z,100280.22
2022-08-01T07:00:25.642Z,100275.16
2022-08-01T07:02:59.922Z,100278.75
2022-08-01T07:05:53.979Z,100279.97
2022-08-01T07:08:22.419Z,100272.03
2022-08-01T07:10:51.298Z,100271.78
2022-08-01T07:13:22.742Z,100271.31
2022-08-01T07:15:51.350Z,100274.81
2022-08-01T07:18:19.113Z,100274.06
2022-08-01T07:20:51.160Z,100277.44
2022-08-01T07:23:22.674Z,100273.56
2022-08-01T07:26:22.863Z,100274.28
2022-08-01T07:28:50.661Z,100276.44
2022-08-01T07:31:22.338Z,100273.88
2022-08-01T07:33:51.867Z,100273.44
2022-08-01T07:36:20.181Z,100269.88
2022-08-01T07:38:48.589Z,100265.69
2022-08-01T07:41:18.445Z,100264.63
2022-08-01T07:43:56.084Z,100266.22
2022-08-01T07:46:50.883Z,100264.56
2022-08-01T07:49:18.909Z,100269.59
2022-08-01T07:52:03.311Z,100268.28
2022-08-01T07:54:34.691Z,100259.88
2022-08-01T07:57:05.181Z,100264.66
2022-08-01T07:59:33.596Z,100262.56
2022-08-01T08:02:02.332Z,100260.28
2022-08-01T08:04:30.799Z,100261.41
2022-08-01T08:07:00.184Z,100258.53
2022-08-01T08:09:52.878Z,100261.81
2022-08-01T08:12:48.063Z,100260.91
2022-08-01T08:15:41.031Z,100265.53
2022-08-01T08:18:09.020Z,100267.81
2022-08-01T08:20:38.218Z,100265.63
2022-08-01T08:23:42.925Z,100269.59
2022-08-01T08:26:39.288Z,100272.25
2022-08-01T08:29:09.162Z,100270.97
2022-08-01T08:31:51.353Z,100267.25
2022-08-01T08:34:22.111Z,100262.38
2022-08-01T08:36:51.249Z,100271.25
2022-08-01T08:39:20.234Z,100270.78
2022-08-01T08:41:50.152Z,100267.59
2022-08-01T08:44:44.464Z,100284.13
2022-08-01T08:47:19.781Z,100281.94
2022-08-01T08:49:52.541Z,100281.34
2022-08-01T08:52:25.610Z,100284.78
2022-08-01T08:54:57.930Z,100283.19
2022-08-01T08:57:52.157Z,100282.97
2022-08-01T09:00:20.183Z,100284.34
2022-08-01T09:02:50.473Z,100291.13
2022-08-01T09:07:48.033Z,100293.59
2022-08-01T09:10:16.047Z,100290.59
2022-08-01T09:13:14.137Z,100300.09
2022-08-01T09:16:07.002Z,100298.09
2022-08-01T09:18:44.807Z,100300.09
2022-08-01T09:21:38.129Z,100296.88
2022-08-01T09:24:17.565Z,100298.25
2022-08-01T09:26:59.510Z,100298.22
2022-08-01T09:29:37.687Z,100303.69
2022-08-01T09:32:07.630Z,100309.69
2022-08-01T09:34:35.886Z,100303.38
2022-08-01T09:37:05.729Z,100302.84
2022-08-01T09:39:40.703Z,100308.56
2022-08-01T09:42:29.121Z,100308.28
2022-08-01T09:44:57.600Z,100306.16
2022-08-01T09:47:39.588Z,100298.59
2022-08-01T09:50:11.025Z,100297.25
2022-08-01T09:52:41.242Z,100297.78
2022-08-01T09:55:10.434Z,100305.94
2022-08-01T09:57:39.166Z,100304.34
2022-08-01T10:00:35.706Z,100302.47
2022-08-01T10:03:24.153Z,100301.38
2022-08-01T10:05:54.764Z,100298.03
2022-08-01T10:08:24.475Z,100306.16
2022-08-01T10:11:12.431Z,100294.19
2022-08-01T10:13:41.380Z,100292.59
2022-08-01T10:16:10.601Z,100293.72
2022-08-01T10:18:42.263Z,100288.22
2022-08-01T10:21:13.406Z,100284.16
2022-08-01T10:23:42.864Z,100288.28
2022-08-01T10:26:13.418Z,100289.91
2022-08-01T10:28:42.308Z,100292.69
2022-08-01T10:31:12.745Z,100293.22
2022-08-01T10:33:52.470Z,100300.31
2022-08-01T10:36:25.457Z,100290.25
2022-08-01T10:38:56.642Z,100291.88
2022-08-01T10:41:27.465Z,100294.34
2022-08-01T10:43:56.918Z,100290.22
2022-08-01T10:46:26.273Z,100285.91
2022-08-01T10:49:27.069Z,100290.22
2022-08-01T10:51:56.107Z,100279.06
2022-08-01T10:54:26.807Z,100292.38
2022-08-01T10:56:57.598Z,100289.41
2022-08-01T10:59:49.621Z,100286.94
2022-08-01T11:02:32.218Z,100274.19
2022-08-01T11:05:19.939Z,100281.28
2022-08-01T11:07:53.979Z,100276.94
2022-08-01T11:10:30.930Z,100276.38
2022-08-01T11:13:00.267Z,100272.03
2022-08-01T11:15:30.867Z,100272.53
2022-08-01T11:18:04.505Z,100271.75
2022-08-01T11:20:41.953Z,100278.28
2022-08-01T11:23:13.867Z,100279.63
2022-08-01T11:26:05.364Z,100277.47
2022-08-01T11:28:36.876Z,100282.34
2022-08-01T11:31:11.054Z,100282.56
2022-08-01T11:33:45.868Z,100286.69
2022-08-01T11:36:15.654Z,100282.34
2022-08-01T11:39:13.869Z,100275.50
2022-08-01T11:41:44.935Z,100276.53
2022-08-01T11:44:20.850Z,100272.66
2022-08-01T11:47:09.403Z,100280.84
2022-08-01T11:50:03.834Z,100281.06
2022-08-01T11:52:42.101Z,100278.03
2022-08-01T11:55:11.471Z,100279.97
2022-08-01T11:57:40.156Z,100275.19
2022-08-01T12:00:18.062Z,100272.72
2022-08-01T12:02:48.136Z,100273.78
2022-08-01T12:05:24.870Z,100272.13
2022-08-01T12:07:56.559Z,100279.13
2022-08-01T12:10:34.090Z,100280.25
2022-08-01T12:13:28.073Z,100267.19
2022-08-01T12:15:56.920Z,100271.81
2022-08-01T12:18:24.985Z,100272.91
2022-08-01T12:21:01.965Z,100276.47
2022-08-01T12:23:31.343Z,100273.44
2022-08-01T12:25:59.312Z,100268.81
2022-08-01T12:28:28.565Z,100270.75
2022-08-01T12:30:56.611Z,100266.13
2022-08-01T12:33:25.928Z,100272.91
2022-08-01T12:35:54.070Z,100268.81
2022-08-01T12:38:24.207Z,100270.44
2022-08-01T12:40:53.601Z,100261.19
2022-08-01T12:43:28.500Z,100270.19
2022-08-01T12:46:01.674Z,100266.38
2022-08-01T12:48:32.464Z,100266.97
2022-08-01T12:51:02.353Z,100270.00
2022-08-01T12:53:41.269Z,100265.91
2022-08-01T12:56:14.147Z,100260.22
2022-08-01T12:58:42.073Z,100261.28
2022-08-01T13:01:12.571Z,100266.50
2022-08-01T13:03:41.268Z,100258.06
2022-08-01T13:06:17.919Z,100260.78
2022-08-01T13:08:46.578Z,100252.03
2022-08-01T13:11:17.745Z,100250.03
2022-08-01T13:13:53.892Z,100248.63
2022-08-01T13:16:49.129Z,100247.78
2022-08-01T13:19:19.377Z,100249.44
2022-08-01T13:22:02.549Z,100254.56
2022-08-01T13:24:31.996Z,100253.16
2022-08-01T13:27:04.438Z,100252.31
2022-08-01T13:29:35.948Z,100253.88
2022-08-01T13:32:28.357Z,100249.81
2022-08-01T13:35:09.728Z,100240.84
2022-08-01T13:37:39.371Z,100250.88
2022-08-01T13:40:09.136Z,100258.25
2022-08-01T13:42:38.234Z,100253.06
2022-08-01T13:45:11.903Z,100253.38
2022-08-01T13:48:03.823Z,100253.53
2022-08-01T13:50:33.583Z,100246.44
2022-08-01T13:53:27.073Z,100252.28
2022-08-01T13:55:55.493Z,100252.47
2022-08-01T13:58:27.504Z,100253.06
2022-08-01T14:00:56.819Z,100255.16
2022-08-01T14:03:33.334Z,100259.41
2022-08-01T14:06:03.144Z,100266.03
2022-08-01T14:08:32.252Z,100252.38
2022-08-01T14:11:00.859Z,100259.06
2022-08-01T14:13:33.802Z,100265.97
2022-08-01T14:16:06.503Z,100267.28
2022-08-01T14:18:34.878Z,100256.00
2022-08-01T14:21:06.014Z,100272.00
2022-08-01T14:23:33.894Z,100261.84
2022-08-01T14:26:08.397Z,100272.28
2022-08-01T14:28:40.455Z,100270.97
2022-08-01T14:31:09.059Z,100270.50
2022-08-01T14:33:37.616Z,100268.75
2022-08-01T14:36:30.493Z,100270.75
2022-08-01T14:38:55.616Z,100271.31
2022-08-01T14:41:30.773Z,100280.56
2022-08-01T14:44:00.841Z,100276.56
2022-08-01T14:46:34.032Z,100274.63
2022-08-01T14:49:02.118Z,100274.00
2022-08-01T14:51:34.307Z,100281.38
2022-08-01T14:54:02.222Z,100274.28
2022-08-01T14:56:35.510Z,100276.78
2022-08-01T14:59:03.694Z,100276.91
2022-08-01T15:01:49.085Z,100267.50
2022-08-01T15:04:18.474Z,100282.44
2022-08-01T15:06:46.583Z,100281.88
2022-08-01T15:09:14.320Z,100285.66
2022-08-01T15:11:42.435Z,100283.72
2022-08-01T15:14:28.689Z,100288.88
2022-08-01T15:16:56.805Z,100284.34
2022-08-01T15:19:24.836Z,100285.97
2022-08-01T15:21:52.700Z,100289.97
2022-08-01T15:24:23.826Z,100293.53
2022-08-01T15:26:52.284Z,100293.63
2022-08-01T15:29:22.464Z,100285.56
2022-08-01T15:31:50.729Z,100291.44
2022-08-01T15:34:19.308Z,100287.88
2022-08-01T15:37:12.312Z,100283.38
2022-08-01T15:39:40.635Z,100280.38
2022-08-01T15:45:20.738Z,100283.03
2022-08-01T15:47:54.009Z,100283.00
2022-08-01T15:50:22.081Z,100275.03
2022-08-01T15:52:52.699Z,100276.75
2022-08-01T15:55:20.963Z,100276.75
2022-08-01T15:57:48.857Z,100275.41
2022-08-01T16:00:17.235Z,100275.22
2022-08-01T16:02:44.959Z,100284.50
2022-08-01T16:05:19.700Z,100275.81
2022-08-01T16:07:59.611Z,100285.19
2022-08-01T16:10:31.136Z,100282.56
2022-08-01T16:13:04.469Z,100285.56
2022-08-01T16:15:45.623Z,100285.25
2022-08-01T16:18:14.704Z,100277.34
2022-08-01T16:20:47.469Z,100285.47
2022-08-01T16:23:16.145Z,100290.94
2022-08-01T16:25:45.135Z,100286.59
2022-08-01T16:28:14.559Z,100289.34
2022-08-01T16:30:48.675Z,100293.41
2022-08-01T16:33:45.852Z,100295.88
2022-08-01T16:36:16.633Z,100304.63
2022-08-01T16:38:47.948Z,100295.19
2022-08-01T16:41:20.626Z,100302.56
2022-08-01T16:43:53.476Z,100300.47
2022-08-01T16:46:43.828Z,100299.16
2022-08-01T16:49:20.871Z,100303.84
2022-08-01T16:51:49.639Z,100300.13
2022-08-01T16:54:25.185Z,100299.03
2022-08-01T16:57:08.748Z,100297.63
2022-08-01T16:59:41.284Z,100301.44
2022-08-01T17:02:15.930Z,100303.63
2022-08-01T17:04:44.341Z,100303.94
2022-08-01T17:07:13.690Z,100308.81
2022-08-01T17:09:43.638Z,100307.22
2022-08-01T17:12:22.415Z,100311.03
2022-08-01T17:14:52.009Z,100312.69
2022-08-01T17:17:21.130Z,100307.03
2022-08-01T17:19:50.465Z,100311.41
2022-08-01T17:22:19.370Z,100316.53
2022-08-01T17:24:51.445Z,100305.41
2022-08-01T17:27:20.493Z,100307.88
2022-08-01T17:29:48.632Z,100311.69
2022-08-01T17:32:42.588Z,100313.88
2022-08-01T17:35:37.305Z,100314.69
2022-08-01T17:38:05.330Z,100319.31
2022-08-01T17:40:41.571Z,100313.88
2022-08-01T17:43:10.437Z,100311.97
2022-08-01T17:45:50.168Z,100317.66
2022-08-01T17:48:19.776Z,100317.94
2022-08-01T17:50:48.682Z,100324.47
2022-08-01T17:53:21.116Z,100321.50
2022-08-01T17:55:55.797Z,100319.84
2022-08-01T17:58:49.649Z,100330.72
2022-08-01T18:01:27.052Z,100328.84
2022-08-01T18:03:57.532Z,100331.53
2022-08-01T18:06:27.475Z,100326.38
2022-08-01T18:08:56.686Z,100333.44
2022-08-01T18:11:28.505Z,100332.34
2022-08-01T18:13:59.557Z,100322.00
2022-08-01T18:16:28.739Z,100327.16
2022-08-01T18:18:57.132Z,100331.78
2022-08-01T18:21:25.534Z,100332.88
2022-08-01T18:23:53.613Z,100335.56
2022-08-01T18:26:22.912Z,100343.19
2022-08-01T18:28:50.952Z,100346.41
2022-08-01T18:31:20.911Z,100338.78
2022-08-01T18:33:49.410Z,100338.78
2022-08-01T18:36:33.160Z,100339.88
2022-08-01T18:39:06.166Z,100349.13
2022-08-01T18:42:01.551Z,100347.47
2022-08-01T18:44:30.249Z,100349.06
2022-08-01T18:47:00.701Z,100356.69
2022-08-01T18:49:54.379Z,100355.06
2022-08-01T18:52:28.635Z,100361.84
2022-08-01T18:55:00.355Z,100362.63
2022-08-01T18:57:54.213Z,100362.38
2022-08-01T19:00:23.248Z,100364.25
2022-08-01T19:02:54.447Z,100366.97
2022-08-01T19:05:49.719Z,100361.81
2022-08-01T19:08:18.505Z,100367.78
2022-08-01T19:10:47.704Z,100380.50
2022-08-01T19:13:17.104Z,100376.97
2022-08-01T19:15:45.739Z,100371.53
2022-08-01T19:24:54.076Z,100384.50
2022-08-01T19:27:25.174Z,100382.06
2022-08-01T19:30:19.733Z,100382.31
2022-08-01T19:32:50.526Z,100383.41
2022-08-01T19:35:18.825Z,100382.84
2022-08-01T19:37:49.204Z,100387.22
2022-08-01T19:40:26.988Z,100388.25
2022-08-01T19:43:21.589Z,100389.88
2022-08-01T19:45:55.320Z,100389.31
2022-08-01T19:48:24.018Z,100390.41
2022-08-01T19:50:53.674Z,100385.78
2022-08-01T19:53:25.295Z,100385.25
2022-08-01T19:55:55.639Z,100385.00
2022-08-01T19:58:27.330Z,100382.00
2022-08-01T20:01:21.862Z,100384.13
2022-08-01T20:03:51.503Z,100385.47
2022-08-01T20:06:24.532Z,100392.28
2022-08-01T20:08:55.289Z,100387.13
2022-08-01T20:11:24.057Z,100394.72
2022-08-01T20:13:52.448Z,100397.91
2022-08-01T20:16:20.373Z,100391.13
2022-08-01T20:18:48.565Z,100391.38
2022-08-01T20:21:18.010Z,100393.81
2022-08-01T20:23:46.643Z,100395.72
2022-08-01T20:26:16.456Z,100399.78
2022-08-01T20:28:49.646Z,100394.34
2022-08-01T20:31:18.305Z,100395.97
2022-08-01T20:33:48.777Z,100401.63
2022-08-01T20:36:24.902Z,100405.69
2022-08-01T20:38:56.804Z,100398.63
2022-08-01T20:41:27.214Z,100396.69
2022-08-01T20:43:57.329Z,100408.09
2022-08-01T20:46:29.498Z,100393.97
2022-08-01T20:49:07.192Z,100396.69
2022-08-01T20:51:42.055Z,100390.72
2022-08-01T20:54:11.054Z,100401.56
2022-08-01T20:56:41.895Z,100394.78
2022-08-01T20:59:39.705Z,100395.06
2022-08-01T21:02:17.774Z,100397.22
2022-08-01T21:04:49.435Z,100400.72
2022-08-01T21:07:27.455Z,100403.97
2022-08-01T21:10:24.870Z,100400.69
2022-08-01T21:13:24.825Z,100403.91
2022-08-01T21:16:22.201Z,100407.94
2022-08-01T21:27:33.298Z,100409.28
2022-08-01T21:30:09.134Z,100402.75
2022-08-01T21:32:38.988Z,100412.78
2022-08-01T21:35:16.607Z,100411.13
2022-08-01T21:37:52.632Z,100414.13
2022-08-01T21:40:28.711Z,100421.09
2022-08-01T21:43:04.960Z,100420.59
2022-08-01T21:45:58.014Z,100420.88
2022-08-01T21:51:52.029Z,100417.84
2022-08-01T22:04:18.283Z,100412.09
2022-08-01T22:06:50.094Z,100408.53
2022-08-01T22:09:21.949Z,100409.34
2022-08-01T22:11:59.323Z,100411.53
2022-08-01T22:14:31.880Z,100411.53
2022-08-01T22:17:00.420Z,100417.69
2022-08-01T22:19:32.414Z,100419.06
2022-08-01T22:22:51.131Z,100420.94
2022-08-01T22:25:02.589Z,100427.19
2022-08-01T22:28:08.692Z,100422.31
2022-08-01T22:30:19.453Z,100422.06
2022-08-01T22:33:07.552Z,100431.56
2022-08-01T22:35:36.866Z,100425.06
2022-08-01T22:38:09.705Z,100431.31
2022-08-01T22:40:44.382Z,100435.66
2022-08-01T22:43:24.302Z,100435.41
2022-08-01T22:46:04.959Z,100430.50
2022-08-01T22:48:49.988Z,100451.34
2022-08-01T22:51:27.642Z,100438.31
2022-08-01T22:54:05.671Z,100437.75
2022-08-01T22:56:39.426Z,100443.34
2022-08-01T22:59:15.676Z,100436.78
2022-08-01T23:01:50.462Z,100430.84
2022-08-01T23:04:48.815Z,100434.09
2022-08-01T23:07:24.657Z,100437.06
2022-08-01T23:09:55.416Z,100438.38
2022-08-01T23:12:26.131Z,100443.56
2022-08-01T23:14:56.207Z,100442.69
2022-08-01T23:17:28.881Z,100431.22
2022-08-01T23:20:03.937Z,100439.34
2022-08-01T23:22:33.770Z,100445.28
2022-08-01T23:25:07.054Z,100446.09
2022-08-01T23:28:04.924Z,100438.81
2022-08-01T23:30:35.425Z,100437.94
2022-08-01T23:33:03.963Z,100439.25
2022-08-01T23:35:36.892Z,100439.50
2022-08-01T23:38:08.131Z,100444.28
2022-08-01T23:40:36.225Z,100442.91
2022-08-01T23:43:05.977Z,100439.38
2022-08-01T23:46:04.510Z,100438.25
2022-08-01T23:48:31.217Z,100439.59
2022-08-01T23:50:59.145Z,100447.13
2022-08-01T23:53:31.001Z,100445.75
2022-08-01T23:56:02.408Z,100447.06
2022-08-01T23:58:31.328Z,100443.81
